createdAt,value
2018-08-06T00:00:33.420Z,19.60
2018-08-06T00:03:02.294Z,19.50
2018-08-06T00:05:31.094Z,19.40
2018-08-06T00:07:59.854Z,19.50
2018-08-06T00:10:28.961Z,19.40
2018-08-06T00:12:57.689Z,19.30
2018-08-06T00:15:26.481Z,19.30
2018-08-06T00:17:55.245Z,19.30
2018-08-06T00:20:24.035Z,19.30
2018-08-06T00:22:52.896Z,19.30
2018-08-06T00:25:21.626Z,19.20
2018-08-06T00:27:50.387Z,19.20
2018-08-06T00:30:20.180Z,19.20
2018-08-06T00:32:49.699Z,19.20
2018-08-06T00:35:18.608Z,19.20
2018-08-06T00:37:47.485Z,19.10
2018-08-06T00:40:18.842Z,19.10
2018-08-06T00:42:48.324Z,19.00
2018-08-06T00:45:18.719Z,19.00
2018-08-06T00:47:48.051Z,19.00
2018-08-06T00:50:16.900Z,19.00
2018-08-06T00:52:45.799Z,18.90
2018-08-06T00:55:17.139Z,18.80
2018-08-06T00:57:45.861Z,18.80
2018-08-06T01:00:20.302Z,18.80
2018-08-06T01:02:49.137Z,18.80
2018-08-06T01:05:18.146Z,18.80
2018-08-06T01:07:47.027Z,18.70
2018-08-06T01:10:17.002Z,18.80
2018-08-06T01:12:45.837Z,18.70
2018-08-06T01:15:16.703Z,18.70
2018-08-06T01:17:45.398Z,18.70
2018-08-06T01:20:14.431Z,18.60
2018-08-06T01:22:43.982Z,18.60
2018-08-06T01:25:13.412Z,18.60
2018-08-06T01:27:42.111Z,18.50
2018-08-06T01:30:13.097Z,18.40
2018-08-06T01:32:41.783Z,18.30
2018-08-06T01:35:11.196Z,18.30
2018-08-06T01:37:40.190Z,18.30
2018-08-06T01:40:11.217Z,18.30
2018-08-06T01:42:40.240Z,18.30
2018-08-06T01:45:09.313Z,18.30
2018-08-06T01:47:38.554Z,18.20
2018-08-06T01:50:08.033Z,18.20
2018-08-06T01:52:36.925Z,18.20
2018-08-06T01:55:05.866Z,18.10
2018-08-06T01:57:34.679Z,18.00
2018-08-06T02:00:04.449Z,17.90
2018-08-06T02:02:33.183Z,17.90
2018-08-06T02:05:01.877Z,17.90
2018-08-06T02:07:30.546Z,18.00
2018-08-06T02:09:59.249Z,17.90
2018-08-06T02:12:28.009Z,17.90
2018-08-06T02:14:57.046Z,17.90
2018-08-06T02:17:25.818Z,17.90
2018-08-06T02:19:54.600Z,17.80
2018-08-06T02:22:23.229Z,17.70
2018-08-06T02:24:51.929Z,17.70
2018-08-06T02:27:20.661Z,17.70
2018-08-06T02:29:49.339Z,17.60
2018-08-06T02:32:18.098Z,17.60
2018-08-06T02:34:46.903Z,17.60
2018-08-06T02:37:15.606Z,17.60
2018-08-06T02:39:44.302Z,17.60
2018-08-06T02:42:12.930Z,17.60
2018-08-06T02:44:41.649Z,17.60
2018-08-06T02:47:10.334Z,17.60
2018-08-06T02:49:39.013Z,17.60
2018-08-06T02:52:07.820Z,17.50
2018-08-06T02:54:36.409Z,17.40
2018-08-06T02:57:05.273Z,17.40
2018-08-06T02:59:33.947Z,17.40
2018-08-06T03:02:02.679Z,17.40
2018-08-06T03:04:31.304Z,17.40
2018-08-06T03:07:00.025Z,17.40
2018-08-06T03:09:28.693Z,17.40
2018-08-06T03:11:57.353Z,17.40
2018-08-06T03:14:26.049Z,17.30
2018-08-06T03:16:54.656Z,17.30
2018-08-06T03:19:23.370Z,17.30
2018-08-06T03:21:51.962Z,17.20
2018-08-06T03:24:20.776Z,17.30
2018-08-06T03:26:49.431Z,17.30
2018-08-06T03:29:18.291Z,17.20
2018-08-06T03:31:46.983Z,17.30
2018-08-06T03:34:15.620Z,17.30
2018-08-06T03:36:44.277Z,17.20
2018-08-06T03:39:12.956Z,17.20
2018-08-06T03:41:41.651Z,17.10
2018-08-06T03:44:10.386Z,17.10
2018-08-06T03:46:39.053Z,17.10
2018-08-06T03:49:07.650Z,17.00
2018-08-06T03:51:36.399Z,17.00
2018-08-06T03:54:05.198Z,17.00
2018-08-06T03:56:33.949Z,17.00
2018-08-06T03:59:02.599Z,17.10
2018-08-06T04:01:31.290Z,17.10
2018-08-06T04:03:59.888Z,17.10
2018-08-06T04:06:28.544Z,17.10
2018-08-06T04:08:57.273Z,17.10
2018-08-06T04:11:25.915Z,17.10
2018-08-06T04:13:54.547Z,17.20
2018-08-06T04:16:27.649Z,17.10
2018-08-06T04:18:56.360Z,17.10
2018-08-06T04:21:25.070Z,17.10
2018-08-06T04:23:53.808Z,17.10
2018-08-06T04:26:22.452Z,17.10
2018-08-06T05:51:50.765Z,17.10
2018-08-06T05:54:19.649Z,26.20
2018-08-06T05:56:48.513Z,25.70
2018-08-06T05:59:17.453Z,25.00
2018-08-06T06:01:46.565Z,24.30
2018-08-06T06:04:15.362Z,24.10
2018-08-06T06:06:44.693Z,24.20
2018-08-06T06:09:13.384Z,24.00
2018-08-06T06:11:42.023Z,23.90
2018-08-06T06:14:10.919Z,23.70
2018-08-06T06:16:39.639Z,23.60
2018-08-06T06:19:08.400Z,24.10
2018-08-06T06:21:37.119Z,24.70
2018-08-06T06:24:05.850Z,25.40
2018-08-06T06:26:34.529Z,26.40
2018-08-06T06:29:03.309Z,26.80
2018-08-06T06:31:31.959Z,27.00
2018-08-06T06:34:00.600Z,27.70
2018-08-06T06:36:29.247Z,28.20
2018-08-06T06:38:58.003Z,28.40
2018-08-06T06:41:27.462Z,28.60
2018-08-06T06:43:56.205Z,28.30
2018-08-06T06:46:25.489Z,27.70
2018-08-06T06:48:54.280Z,26.70
2018-08-06T06:51:23.096Z,25.60
2018-08-06T06:53:52.626Z,24.70
2018-08-06T06:56:21.467Z,24.40
2018-08-06T06:58:50.730Z,23.90
2018-08-06T07:01:19.479Z,23.40
2018-08-06T07:03:48.294Z,23.30
2018-08-06T07:06:17.002Z,23.30
2018-08-06T07:08:45.697Z,23.20
2018-08-06T07:11:14.968Z,23.00
2018-08-06T07:13:43.796Z,23.10
2018-08-06T07:16:12.488Z,23.00
2018-08-06T07:18:41.317Z,23.10
2018-08-06T07:21:09.995Z,23.10
2018-08-06T07:23:38.745Z,23.20
2018-08-06T07:26:07.669Z,23.20
2018-08-06T07:28:36.293Z,23.30
2018-08-06T07:31:05.119Z,23.30
2018-08-06T07:33:33.882Z,23.30
2018-08-06T07:36:02.678Z,23.40
2018-08-06T07:38:31.351Z,23.30
2018-08-06T07:41:00.023Z,23.30
2018-08-06T07:43:28.695Z,23.30
2018-08-06T07:45:58.608Z,23.40
2018-08-06T07:48:27.401Z,23.40
2018-08-06T07:50:56.213Z,23.60
2018-08-06T07:53:24.967Z,23.70
2018-08-06T07:55:53.895Z,23.70
2018-08-06T07:58:22.723Z,23.90
2018-08-06T08:00:51.800Z,23.90
2018-08-06T08:03:20.522Z,24.00
2018-08-06T08:05:49.310Z,24.10
2018-08-06T08:08:18.160Z,24.20
2018-08-06T08:10:46.941Z,24.30
2018-08-06T08:13:15.808Z,24.40
2018-08-06T08:15:44.562Z,24.50
2018-08-06T08:18:13.248Z,24.60
2018-08-06T08:20:42.033Z,24.70
2018-08-06T08:23:10.786Z,24.70
2018-08-06T08:25:39.518Z,24.80
2018-08-06T08:28:08.317Z,24.90
2018-08-06T08:30:37.045Z,25.00
2018-08-06T08:33:06.518Z,25.10
2018-08-06T08:35:35.975Z,25.30
2018-08-06T08:38:04.759Z,25.40
2018-08-06T08:40:33.530Z,25.40
2018-08-06T08:43:02.312Z,25.50
2018-08-06T08:45:31.034Z,25.60
2018-08-06T08:48:00.104Z,25.80
2018-08-06T08:50:28.834Z,25.70
2018-08-06T08:52:57.643Z,25.80
2018-08-06T08:55:26.444Z,25.70
2018-08-06T08:57:55.224Z,25.90
2018-08-06T09:00:24.141Z,25.90
2018-08-06T09:02:53.374Z,25.90
2018-08-06T09:05:22.317Z,26.00
2018-08-06T09:07:52.294Z,26.00
2018-08-06T09:10:21.434Z,26.00
2018-08-06T09:12:50.236Z,26.10
2018-08-06T09:15:20.563Z,26.30
2018-08-06T09:17:49.244Z,26.40
2018-08-06T09:20:18.014Z,26.50
2018-08-06T09:22:47.184Z,26.60
2018-08-06T09:25:16.056Z,26.60
2018-08-06T09:27:46.010Z,26.60
2018-08-06T09:30:17.948Z,26.70
2018-08-06T09:32:48.827Z,26.70
2018-08-06T09:35:18.985Z,26.80
2018-08-06T09:37:47.603Z,27.00
2018-08-06T09:40:18.451Z,27.00
2018-08-06T09:42:47.718Z,27.20
2018-08-06T09:45:17.531Z,27.20
2018-08-06T09:47:47.459Z,27.40
2018-08-06T09:50:16.938Z,27.40
2018-08-06T09:52:46.588Z,27.30
2018-08-06T09:55:17.581Z,27.50
2018-08-06T09:57:46.629Z,27.40
2018-08-06T10:00:21.882Z,27.50
2018-08-06T10:02:51.254Z,27.70
2018-08-06T10:05:21.720Z,27.80
2018-08-06T10:07:50.487Z,27.80
2018-08-06T10:10:19.254Z,27.70
2018-08-06T10:12:48.062Z,27.70
2018-08-06T10:15:17.026Z,27.60
2018-08-06T10:17:46.713Z,27.70
2018-08-06T10:20:17.658Z,27.80
2018-08-06T10:22:46.349Z,27.80
2018-08-06T10:25:15.484Z,27.90
2018-08-06T10:27:44.931Z,28.10
2018-08-06T10:30:15.870Z,28.20
2018-08-06T10:32:44.960Z,28.40
2018-08-06T10:35:14.917Z,28.40
2018-08-06T10:37:43.805Z,28.40
2018-08-06T10:40:15.452Z,28.40
2018-08-06T10:42:44.970Z,28.50
2018-08-06T10:45:15.732Z,28.60
2018-08-06T10:47:45.108Z,28.70
2018-08-06T10:50:13.900Z,28.60
2018-08-06T10:52:42.601Z,28.50
2018-08-06T10:55:12.012Z,28.50
2018-08-06T10:57:41.925Z,28.50
2018-08-06T11:00:12.756Z,28.60
2018-08-06T11:02:41.430Z,28.60
2018-08-06T11:05:11.238Z,28.50
2018-08-06T11:07:40.112Z,28.70
2018-08-06T11:10:11.174Z,28.80
2018-08-06T11:12:40.330Z,28.80
2018-08-06T11:15:11.533Z,28.90
2018-08-06T11:17:40.544Z,29.10
2018-08-06T11:20:11.490Z,29.30
2018-08-06T11:22:40.544Z,29.20
2018-08-06T11:25:11.118Z,29.00
2018-08-06T11:27:39.876Z,29.00
2018-08-06T11:30:11.251Z,29.10
2018-08-06T11:32:39.948Z,29.20
2018-08-06T11:35:09.448Z,29.00
2018-08-06T11:37:38.253Z,28.90
2018-08-06T11:40:08.097Z,29.10
2018-08-06T11:42:37.272Z,29.20
2018-08-06T11:45:06.481Z,29.40
2018-08-06T11:47:35.139Z,29.50
2018-08-06T11:50:04.465Z,29.40
2018-08-06T11:52:33.565Z,29.60
2018-08-06T11:55:02.377Z,29.70
2018-08-06T11:57:31.160Z,29.80
2018-08-06T12:00:02.149Z,29.80
2018-08-06T12:02:30.931Z,29.70
2018-08-06T12:04:59.509Z,29.60
2018-08-06T12:07:28.293Z,29.60
2018-08-06T12:09:57.408Z,29.60
2018-08-06T12:12:26.137Z,29.70
2018-08-06T12:14:54.821Z,30.00
2018-08-06T12:17:23.549Z,30.20
2018-08-06T12:19:52.193Z,30.10
2018-08-06T12:22:20.943Z,29.90
2018-08-06T12:24:50.589Z,29.90
2018-08-06T12:27:19.542Z,29.90
2018-08-06T12:29:48.362Z,30.00
2018-08-06T12:32:17.069Z,30.00
2018-08-06T12:34:45.786Z,30.00
2018-08-06T12:37:14.472Z,30.10
2018-08-06T12:39:43.272Z,30.10
2018-08-06T12:42:12.107Z,30.30
2018-08-06T12:44:40.730Z,30.30
2018-08-06T12:47:10.368Z,30.50
2018-08-06T12:49:39.046Z,30.40
2018-08-06T12:52:07.773Z,30.50
2018-08-06T12:54:37.170Z,30.60
2018-08-06T12:57:05.999Z,30.80
2018-08-06T12:59:34.731Z,30.90
2018-08-06T13:02:03.513Z,31.00
2018-08-06T13:04:32.223Z,31.10
2018-08-06T13:07:00.946Z,31.10
2018-08-06T13:09:29.724Z,31.20
2018-08-06T13:11:58.494Z,31.30
2018-08-06T13:14:27.786Z,31.10
2018-08-06T13:16:57.026Z,31.20
2018-08-06T13:19:25.662Z,31.10
2018-08-06T13:21:54.601Z,31.20
2018-08-06T13:24:23.529Z,31.20
2018-08-06T13:26:52.215Z,31.20
2018-08-06T13:29:20.814Z,31.20
2018-08-06T13:31:49.603Z,31.20
2018-08-06T13:34:18.279Z,31.10
2018-08-06T13:36:46.957Z,31.10
2018-08-06T13:39:15.763Z,31.10
2018-08-06T13:41:44.471Z,31.20
2018-08-06T13:44:13.134Z,31.30
2018-08-06T13:46:42.009Z,31.50
2018-08-06T13:49:11.209Z,31.50
2018-08-06T13:51:40.001Z,31.50
2018-08-06T13:54:08.765Z,31.50
2018-08-06T13:56:37.594Z,31.60
2018-08-06T13:59:06.315Z,31.80
2018-08-06T14:01:35.476Z,32.00
2018-08-06T14:04:04.410Z,31.70
2018-08-06T14:06:33.122Z,31.70
2018-08-06T14:09:01.742Z,31.80
2018-08-06T14:11:30.350Z,31.70
2018-08-06T14:13:59.318Z,31.70
2018-08-06T14:16:28.238Z,31.60
2018-08-06T14:18:57.636Z,31.60
2018-08-06T14:21:27.015Z,31.60
2018-08-06T14:23:57.122Z,31.80
2018-08-06T14:26:25.705Z,31.90
2018-08-06T14:28:54.311Z,31.90
2018-08-06T14:31:22.905Z,32.00
2018-08-06T14:33:51.589Z,32.00
2018-08-06T14:36:20.919Z,31.80
2018-08-06T14:38:49.677Z,31.50
2018-08-06T14:41:19.492Z,31.40
2018-08-06T14:43:48.172Z,31.50
2018-08-06T14:46:16.811Z,31.60
2018-08-06T14:48:45.453Z,31.80
2018-08-06T14:51:14.005Z,32.10
2018-08-06T14:53:42.746Z,32.20
2018-08-06T14:56:12.169Z,32.40
2018-08-06T14:58:40.894Z,32.50
2018-08-06T15:01:09.858Z,32.50
2018-08-06T15:03:38.793Z,32.60
2018-08-06T15:06:07.441Z,32.70
2018-08-06T15:08:36.151Z,32.70
2018-08-06T15:11:04.916Z,32.50
2018-08-06T15:13:33.541Z,32.40
2018-08-06T15:16:02.236Z,32.30
2018-08-06T15:18:31.015Z,32.30
2018-08-06T15:20:59.641Z,32.40
2018-08-06T15:23:28.827Z,32.30
2018-08-06T15:25:57.496Z,32.40
2018-08-06T15:28:26.209Z,32.40
2018-08-06T15:30:54.978Z,32.40
2018-08-06T15:33:24.164Z,32.30
2018-08-06T15:35:52.840Z,32.40
2018-08-06T15:38:21.690Z,32.30
2018-08-06T15:40:50.395Z,32.40
2018-08-06T15:43:19.050Z,32.40
2018-08-06T15:45:47.789Z,32.40
2018-08-06T15:48:16.396Z,32.40
2018-08-06T15:50:45.816Z,32.40
2018-08-06T15:53:14.558Z,32.40
2018-08-06T15:55:44.110Z,32.40
2018-08-06T15:58:12.683Z,32.30
2018-08-06T16:00:42.299Z,32.40
2018-08-06T16:03:10.895Z,32.40
2018-08-06T16:05:39.569Z,32.40
2018-08-06T16:08:08.619Z,32.50
2018-08-06T16:10:37.468Z,32.50
2018-08-06T16:13:06.300Z,32.40
2018-08-06T16:15:34.921Z,32.50
2018-08-06T16:18:03.778Z,32.60
2018-08-06T16:20:32.612Z,32.60
2018-08-06T16:23:01.304Z,32.50
2018-08-06T16:25:32.974Z,32.30
2018-08-06T16:28:02.569Z,32.30
2018-08-06T16:30:33.414Z,32.50
2018-08-06T16:33:02.256Z,32.60
2018-08-06T16:35:31.035Z,32.60
2018-08-06T16:37:59.762Z,32.70
2018-08-06T16:40:29.244Z,32.70
2018-08-06T16:42:58.284Z,32.80
2018-08-06T16:45:27.407Z,32.80
2018-08-06T16:47:59.482Z,32.80
2018-08-06T16:50:28.277Z,32.80
2018-08-06T16:52:57.246Z,32.80
2018-08-06T16:55:27.410Z,32.80
2018-08-06T16:57:56.226Z,32.70
2018-08-06T17:00:31.927Z,32.70
2018-08-06T17:03:02.034Z,32.70
2018-08-06T17:05:30.889Z,32.70
2018-08-06T17:07:59.724Z,32.70
2018-08-06T17:10:51.814Z,32.60
2018-08-06T17:13:22.142Z,32.60
2018-08-06T17:15:51.542Z,32.50
2018-08-06T17:18:20.202Z,32.50
2018-08-06T17:21:03.900Z,32.40
2018-08-06T17:23:32.688Z,32.70
2018-08-06T17:26:01.576Z,33.70
2018-08-06T17:28:30.462Z,34.90
2018-08-06T17:30:59.480Z,35.90
2018-08-06T17:33:28.300Z,36.20
2018-08-06T17:35:57.080Z,36.20
2018-08-06T17:38:25.764Z,36.30
2018-08-06T17:40:54.629Z,36.40
2018-08-06T17:43:23.337Z,36.10
2018-08-06T17:45:51.970Z,36.20
2018-08-06T17:48:21.521Z,36.60
2018-08-06T17:50:50.223Z,36.70
2018-08-06T17:53:18.844Z,36.50
2018-08-06T17:55:47.598Z,36.00
2018-08-06T17:58:16.281Z,35.50
2018-08-06T18:00:45.340Z,35.00
2018-08-06T18:03:13.989Z,34.40
2018-08-06T18:05:42.773Z,34.00
2018-08-06T18:08:11.541Z,33.50
2018-08-06T18:10:40.378Z,33.00
2018-08-06T18:13:09.483Z,32.60
2018-08-06T18:15:38.128Z,32.20
2018-08-06T18:18:06.935Z,31.90
2018-08-06T18:20:35.761Z,31.80
2018-08-06T18:23:05.714Z,31.60
2018-08-06T18:25:34.514Z,31.50
2018-08-06T18:28:03.281Z,31.40
2018-08-06T18:30:31.886Z,31.10
2018-08-06T18:33:00.978Z,31.00
2018-08-06T18:35:29.771Z,30.80
2018-08-06T18:37:58.533Z,30.70
2018-08-06T18:40:27.260Z,30.60
2018-08-06T18:42:55.976Z,30.50
2018-08-06T18:45:24.613Z,30.40
2018-08-06T18:47:53.510Z,30.30
2018-08-06T18:50:22.239Z,30.20
2018-08-06T18:52:51.405Z,30.10
2018-08-06T18:55:20.208Z,30.00
2018-08-06T18:57:49.246Z,29.90
2018-08-06T19:00:19.949Z,29.80
2018-08-06T19:02:48.801Z,29.80
2018-08-06T19:05:17.690Z,29.60
2018-08-06T19:07:46.397Z,29.50
2018-08-06T19:10:15.113Z,29.40
2018-08-06T20:34:47.307Z,29.30
2018-08-06T20:37:15.984Z,26.70
2018-08-06T20:39:44.626Z,26.50
2018-08-06T20:42:13.376Z,26.40
2018-08-06T20:44:42.063Z,26.30
2018-08-06T20:47:10.751Z,26.30
2018-08-06T20:49:39.338Z,26.20
2018-08-06T20:52:08.826Z,26.20
2018-08-06T20:54:37.895Z,26.20
2018-08-06T20:57:06.629Z,26.20
2018-08-06T20:59:35.274Z,26.20
2018-08-06T21:02:04.014Z,26.10
2018-08-06T21:04:32.936Z,26.00
2018-08-06T21:07:01.681Z,25.90
2018-08-06T21:09:30.389Z,25.90
2018-08-06T21:11:59.065Z,25.80
2018-08-06T21:14:27.778Z,25.80
2018-08-06T21:16:56.469Z,25.80
2018-08-06T21:19:25.182Z,25.80
2018-08-06T21:21:53.910Z,25.60
2018-08-06T21:24:22.678Z,25.60
2018-08-06T21:26:51.967Z,25.60
2018-08-06T21:29:20.696Z,25.60
2018-08-06T21:31:49.471Z,25.60
2018-08-06T21:34:33.907Z,25.50
2018-08-06T21:37:05.029Z,25.50
2018-08-06T21:39:33.728Z,25.40
2018-08-06T21:42:02.478Z,25.40
2018-08-06T21:44:31.166Z,25.40
2018-08-06T21:46:59.803Z,25.30
2018-08-06T21:49:28.499Z,25.30
2018-08-06T21:51:57.329Z,25.40
2018-08-06T21:54:26.147Z,25.40
2018-08-06T21:57:01.275Z,25.20
2018-08-06T21:59:29.939Z,25.20
2018-08-06T22:01:58.680Z,25.10
2018-08-06T22:04:27.216Z,25.10
2018-08-06T22:06:56.125Z,25.10
2018-08-06T22:09:25.030Z,25.10
2018-08-06T22:11:53.828Z,25.00
2018-08-06T22:14:22.580Z,24.80
2018-08-06T22:16:51.407Z,24.80
2018-08-06T22:19:20.319Z,24.70
2018-08-06T22:21:48.967Z,24.70
2018-08-06T22:24:17.679Z,24.60
2018-08-06T22:26:46.349Z,24.60
2018-08-06T22:29:15.125Z,24.60
2018-08-06T22:31:44.106Z,24.60
2018-08-06T22:34:12.709Z,24.60
2018-08-06T22:36:41.353Z,24.50
2018-08-06T22:39:11.039Z,24.50
2018-08-06T22:41:39.711Z,24.40
2018-08-06T22:44:09.142Z,24.40
2018-08-06T22:46:38.053Z,24.30
2018-08-06T22:49:06.766Z,24.30
2018-08-06T22:51:35.545Z,24.30
2018-08-06T22:54:04.401Z,24.30
2018-08-06T22:56:33.671Z,24.20
2018-08-06T22:59:02.314Z,24.20
2018-08-06T23:01:31.066Z,24.20
2018-08-06T23:04:00.401Z,24.20
2018-08-06T23:06:30.015Z,24.20
2018-08-06T23:08:59.253Z,24.20
2018-08-06T23:11:28.114Z,24.10
2018-08-06T23:13:58.033Z,24.10
2018-08-06T23:16:27.978Z,24.00
2018-08-06T23:18:56.934Z,23.90
2018-08-06T23:21:26.790Z,23.90
2018-08-06T23:23:55.696Z,23.90
2018-08-06T23:26:24.425Z,23.90
2018-08-06T23:28:53.200Z,23.80
2018-08-06T23:31:22.033Z,23.80
2018-08-06T23:33:51.162Z,23.80
2018-08-06T23:36:20.357Z,23.70
2018-08-06T23:38:49.773Z,23.70
2018-08-06T23:41:18.620Z,23.60
2018-08-06T23:43:47.461Z,23.50
2018-08-06T23:46:16.259Z,23.50
2018-08-06T23:48:45.074Z,23.50
2018-08-06T23:51:13.764Z,23.60
2018-08-06T23:53:42.560Z,23.50
2018-08-06T23:56:11.285Z,23.50
2018-08-06T23:58:40.054Z,23.40
